Gillette, WY

1:33 PM MDT on July 29, 2014 (GMT -0600)
Johnson County (KBYG) Elev 4967 ft | 44.38 °N, 106.72 °W | Change Station

Current weather conditions updated 40 minutes ago

Overcast
Overcast
68 °F
Feels Like 68 °F
N
9
Wind Variable Wind from SSE

Today is forecast to be Much Cooler than yesterday.

Today
High -- | Low -- °F
--% Chance of Precip.
Yesterday
High -- | Low -- °F
Precip. -- in
5:46 AM 8:31 PM
Waxing Crescent, 7% visible
Pressure 30.17 in
Visibility 10.0 miles
Clouds Overcast 9000 ft
Dew Point 55 °F
Humidity 63%
Rainfall 0.00 in
Snow Depth Not available.
UV 3 out of 12
Pollen 6.30 out of 12
Air Quality Not available.
Flu Activity Not available.
METAR KBYG 291853Z AUTO 16008KT 10SM OVC090 20/13 A3033 RMK AO2 SLP214 T02000128

More Conditions Fewer Conditions

Pressure 30.17 in
Visibility 10.0 miles
Clouds Overcast 9000 ft
Dew Point 55 °F
Humidity 63%
Rainfall 0.00 in
Snow Depth Not available.
UV 3 out of 12
Pollen 6.30 out of 12
Air Quality Not available.
Flu Activity Not available.
METAR KBYG 291853Z AUTO 16008KT 10SM OVC090 20/13 A3033 RMK AO2 SLP214 T02000128

More Conditions Fewer Conditions

10-Day Weather Forecast

Almanac

Astronomy

Jul. 29, 2014 Rise Set
Actual Time 5:46 AM MDT 8:31 PM MDT
Civil Twilight 5:12 AM MDT 9:05 PM MDT
Nautical Twilight 4:29 AM MDT 9:47 PM MDT
Astronomical Twilight 3:39 AM MDT 10:37 PM MDT
Moon 8:33 AM MDT 9:35 PM MDT
Length of Visible Light 15h 53m
Length of Day
14h 45m
Tomorrow will be 2m 17s shorter.
Waxing Crescent, 7% of the Moon is Illuminated
Today
Waxing Crescent
Aug 3
First Quarter
Aug 10
Full
Aug 17
Last Quarter
Aug 25
New

Today's Extremes

State Highs State Lows

Community

WunderPhotos

Upload Photos

1,738,834 photos uploaded!

WunderBlogs® & News

Nearby

Snow Depth

Station Depth Elevation
Casper Mountain 0 in 7850 ft
Sand Lake 0 in 10050 ft
Big Sandy Opening 1 in 9080 ft
Gunsight Pass 1 in 9820 ft
Crow Creek 2 in 8330 ft

Earthquake Activity

City Distance Mag. Time & Date
No recent earthquake activity has been reported nearby.
Minimum magnitude displayed is 2.5.

Coastal Water Temperatures

Place Temperature
No Stations Reporting

Nearby Weather Stations

Station Location Temp. Dew Point Humidity Wind Precip. Elev Updated Type
RAWS ECHETA WY, Gillette, WY 69 °F 61 °F 76% West  at  2 mph 0.00 in / hr 4396 ft 12:51 PM MDT MADIS

Show More Stations Show Fewer Stations